createdAt,value
2023-03-26T00:00:51.899Z,16.70
2023-03-26T00:01:51.921Z,24.90
2023-03-26T00:02:51.866Z,20.40
2023-03-26T00:03:51.822Z,17.60
2023-03-26T00:04:51.799Z,21.80
2023-03-26T00:05:51.966Z,19.60
2023-03-26T00:06:51.750Z,18.60
2023-03-26T00:07:51.719Z,14.20
2023-03-26T00:08:51.692Z,19.20
2023-03-26T00:09:51.667Z,18.00
2023-03-26T00:10:51.641Z,18.40
2023-03-26T00:11:51.611Z,22.50
2023-03-26T00:12:51.585Z,22.80
2023-03-26T00:13:51.558Z,18.80
2023-03-26T00:14:51.532Z,17.50
2023-03-26T00:15:51.636Z,23.20
2023-03-26T00:16:51.527Z,25.00
2023-03-26T00:17:51.936Z,19.40
2023-03-26T00:18:51.503Z,20.20
2023-03-26T00:19:51.608Z,15.60
2023-03-26T00:20:51.744Z,18.70
2023-03-26T00:21:51.400Z,17.50
2023-03-26T00:22:51.350Z,17.60
2023-03-26T00:23:51.368Z,19.00
2023-03-26T00:24:51.269Z,13.20
2023-03-26T00:25:51.382Z,19.00
2023-03-26T00:26:51.211Z,17.00
2023-03-26T00:27:51.193Z,17.30
2023-03-26T00:28:51.171Z,14.90
2023-03-26T00:29:51.141Z,15.10
2023-03-26T00:30:51.140Z,16.80
2023-03-26T00:31:51.094Z,17.90
2023-03-26T00:32:53.348Z,24.70
2023-03-26T00:33:51.036Z,22.40
2023-03-26T00:34:51.031Z,20.30
2023-03-26T00:35:51.007Z,19.30
2023-03-26T00:36:50.957Z,21.90
2023-03-26T00:37:50.942Z,17.30
2023-03-26T00:38:50.908Z,24.10
2023-03-26T00:39:50.893Z,16.70
2023-03-26T00:40:50.856Z,16.90
2023-03-26T00:41:50.828Z,14.60
2023-03-26T00:42:50.801Z,14.20
2023-03-26T00:43:50.779Z,22.50
2023-03-26T00:44:50.751Z,17.00
2023-03-26T00:45:50.769Z,15.60
2023-03-26T00:46:50.709Z,19.60
2023-03-26T00:47:50.763Z,15.60
2023-03-26T00:48:50.645Z,16.80
2023-03-26T00:49:50.656Z,25.00
2023-03-26T00:50:50.694Z,18.20
2023-03-26T00:51:50.569Z,18.40
2023-03-26T00:52:50.541Z,14.30
2023-03-26T00:53:50.588Z,17.30
2023-03-26T00:54:50.488Z,16.30
2023-03-26T00:55:50.461Z,15.10
2023-03-26T00:56:50.476Z,16.30
2023-03-26T00:57:50.408Z,15.00
2023-03-26T00:58:50.443Z,13.70
2023-03-26T00:59:50.359Z,15.30
2023-03-26T01:00:50.332Z,14.50
2023-03-26T01:01:50.338Z,13.00
2023-03-26T01:02:50.324Z,15.90
2023-03-26T01:04:01.200Z,17.80
2023-03-26T01:04:50.260Z,17.00
2023-03-26T01:05:50.202Z,11.60
2023-03-26T01:06:50.189Z,11.40
2023-03-26T01:07:50.145Z,15.50
2023-03-26T01:08:50.129Z,14.60
2023-03-26T01:09:50.099Z,14.10
2023-03-26T01:10:50.069Z,16.20
2023-03-26T01:11:50.050Z,17.80
2023-03-26T01:12:50.017Z,18.00
2023-03-26T01:13:50.112Z,13.20
2023-03-26T01:14:51.128Z,14.20
2023-03-26T01:15:50.000Z,17.80
2023-03-26T01:16:50.055Z,14.00
2023-03-26T01:17:49.899Z,15.50
2023-03-26T01:18:49.934Z,12.70
2023-03-26T01:19:49.834Z,13.80
2023-03-26T01:20:49.813Z,16.70
2023-03-26T01:21:49.777Z,13.10
2023-03-26T01:22:49.795Z,13.50
2023-03-26T01:23:49.779Z,12.50
2023-03-26T01:24:49.705Z,10.30
2023-03-26T01:25:49.674Z,8.50
2023-03-26T01:26:49.649Z,12.20
2023-03-26T01:27:49.638Z,12.60
2023-03-26T01:28:49.653Z,13.30
2023-03-26T01:29:49.570Z,14.70
2023-03-26T01:30:49.556Z,8.10
2023-03-26T01:31:49.515Z,10.50
2023-03-26T01:32:49.553Z,11.40
2023-03-26T01:33:49.577Z,12.40
2023-03-26T01:34:49.441Z,14.30
2023-03-26T01:35:49.449Z,12.60
2023-03-26T01:36:49.390Z,15.80
2023-03-26T01:37:49.362Z,12.30
2023-03-26T01:38:49.401Z,9.80
2023-03-26T01:39:49.336Z,9.90
2023-03-26T01:40:49.287Z,11.10
2023-03-26T01:41:49.257Z,12.80
2023-03-26T01:42:49.243Z,12.50
2023-03-26T01:43:49.255Z,9.60
2023-03-26T01:44:49.176Z,14.70
2023-03-26T01:45:49.151Z,11.00
2023-03-26T01:46:49.143Z,9.10
2023-03-26T01:47:49.124Z,10.60
2023-03-26T01:48:49.130Z,16.40
2023-03-26T01:49:49.047Z,10.40
2023-03-26T01:50:49.020Z,18.10
2023-03-26T01:51:48.993Z,10.90
2023-03-26T01:52:48.978Z,11.70
2023-03-26T01:53:48.994Z,12.30
2023-03-26T01:54:48.935Z,15.70
2023-03-26T01:55:48.891Z,11.80
2023-03-26T01:56:48.918Z,14.40
2023-03-26T01:57:48.835Z,13.40
2023-03-26T01:58:48.812Z,17.30
2023-03-26T01:59:48.784Z,17.60
2023-03-26T02:00:48.766Z,15.80
2023-03-26T02:01:48.799Z,14.20
2023-03-26T02:02:48.824Z,16.00
2023-03-26T02:03:48.810Z,15.40
2023-03-26T02:04:48.656Z,14.80
2023-03-26T02:05:48.636Z,16.10
2023-03-26T02:06:48.607Z,16.70
2023-03-26T02:07:48.576Z,13.40
2023-03-26T02:08:48.604Z,13.80
2023-03-26T02:09:48.529Z,18.80
2023-03-26T02:10:48.522Z,18.00
2023-03-26T02:11:48.479Z,17.70
2023-03-26T02:12:48.452Z,14.00
2023-03-26T02:13:48.490Z,14.10
2023-03-26T02:14:48.397Z,17.70
2023-03-26T02:15:48.413Z,17.00
2023-03-26T02:16:48.344Z,13.10
2023-03-26T02:17:48.389Z,14.70
2023-03-26T02:18:48.393Z,19.60
2023-03-26T02:19:48.266Z,13.20
2023-03-26T02:20:48.268Z,16.00
2023-03-26T02:21:48.216Z,19.00
2023-03-26T02:22:48.216Z,13.20
2023-03-26T02:23:48.212Z,15.60
2023-03-26T02:24:48.144Z,15.40
2023-03-26T02:25:48.111Z,19.20
2023-03-26T02:26:48.108Z,17.00
2023-03-26T02:27:48.052Z,17.60
2023-03-26T02:28:48.082Z,17.50
2023-03-26T02:29:48.005Z,13.70
2023-03-26T02:30:48.332Z,15.20
2023-03-26T02:31:48.016Z,14.10
2023-03-26T02:32:47.963Z,16.40
2023-03-26T02:33:47.954Z,22.00
2023-03-26T02:34:47.877Z,16.70
2023-03-26T02:35:47.889Z,19.20
2023-03-26T02:36:47.834Z,17.80
2023-03-26T02:37:47.805Z,15.50
2023-03-26T02:38:47.831Z,15.70
2023-03-26T02:39:47.745Z,17.90
2023-03-26T02:40:47.723Z,19.00
2023-03-26T02:41:47.697Z,18.80
2023-03-26T02:42:47.686Z,21.70
2023-03-26T02:43:47.694Z,20.20
2023-03-26T02:44:47.622Z,18.90
2023-03-26T02:45:47.692Z,22.90
2023-03-26T02:46:47.580Z,19.30
2023-03-26T02:47:47.547Z,20.60
2023-03-26T02:48:47.572Z,20.80
2023-03-26T02:49:47.502Z,15.50
2023-03-26T02:50:47.464Z,25.90
2023-03-26T02:51:47.457Z,20.50
2023-03-26T02:52:47.417Z,23.00
2023-03-26T02:53:47.451Z,19.10
2023-03-26T02:54:47.368Z,24.70
2023-03-26T02:55:47.336Z,26.50
2023-03-26T02:56:47.325Z,27.50
2023-03-26T02:57:47.286Z,26.20
2023-03-26T02:58:47.326Z,21.40
2023-03-26T02:59:47.241Z,21.90
2023-03-26T03:00:47.314Z,21.50
2023-03-26T03:01:47.183Z,23.70
2023-03-26T03:02:47.232Z,23.00
2023-03-26T03:03:47.125Z,23.30
2023-03-26T03:04:47.100Z,21.70
2023-03-26T03:05:47.078Z,25.70
2023-03-26T03:06:47.058Z,24.60
2023-03-26T03:07:47.028Z,24.60
2023-03-26T03:08:47.001Z,16.40
2023-03-26T03:09:46.974Z,20.90
2023-03-26T03:10:46.957Z,27.70
2023-03-26T03:11:46.921Z,27.20
2023-03-26T03:12:46.901Z,27.30
2023-03-26T03:13:47.168Z,22.30
2023-03-26T03:14:46.863Z,23.60
2023-03-26T03:15:46.824Z,26.70
2023-03-26T03:16:46.842Z,23.10
2023-03-26T03:17:46.836Z,31.30
2023-03-26T03:18:46.808Z,23.70
2023-03-26T03:19:46.724Z,21.60
2023-03-26T03:20:46.703Z,32.60
2023-03-26T03:21:46.669Z,25.80
2023-03-26T03:22:46.644Z,25.40
2023-03-26T03:23:46.667Z,23.70
2023-03-26T03:24:46.596Z,25.00
2023-03-26T03:25:46.576Z,29.20
2023-03-26T03:26:46.553Z,28.80
2023-03-26T03:27:46.523Z,23.20
2023-03-26T03:28:46.606Z,25.70
2023-03-26T03:29:46.488Z,23.00
2023-03-26T03:30:46.466Z,26.10
2023-03-26T03:31:46.420Z,20.90
2023-03-26T03:32:46.445Z,26.40
2023-03-26T03:33:46.580Z,23.00
2023-03-26T03:34:46.340Z,25.00
2023-03-26T03:35:46.358Z,26.60
2023-03-26T03:36:46.286Z,27.20
2023-03-26T03:37:46.275Z,28.50
2023-03-26T03:38:46.291Z,32.80
2023-03-26T03:39:46.208Z,23.00
2023-03-26T03:40:46.202Z,26.60
2023-03-26T03:41:46.159Z,21.00
2023-03-26T03:42:46.134Z,28.40
2023-03-26T03:43:46.170Z,27.50
2023-03-26T03:44:46.087Z,29.70
2023-03-26T03:45:46.111Z,30.30
2023-03-26T03:46:46.075Z,28.00
2023-03-26T03:47:46.085Z,28.80
2023-03-26T03:48:46.081Z,30.40
2023-03-26T03:49:45.957Z,24.70
2023-03-26T03:50:45.929Z,30.80
2023-03-26T03:51:45.909Z,24.70
2023-03-26T03:52:45.878Z,27.40
2023-03-26T03:53:45.977Z,29.40
2023-03-26T03:54:45.840Z,28.80
2023-03-26T03:55:45.798Z,28.70
2023-03-26T03:56:45.835Z,29.30
2023-03-26T03:57:45.777Z,29.00
2023-03-26T03:58:45.786Z,24.40
2023-03-26T03:59:47.512Z,32.30
2023-03-26T04:00:45.670Z,33.60
2023-03-26T04:01:45.669Z,31.70
2023-03-26T04:02:45.708Z,28.80
2023-03-26T04:03:45.752Z,27.10
2023-03-26T04:04:45.570Z,29.70
2023-03-26T04:05:45.544Z,37.00
2023-03-26T04:06:45.518Z,31.80
2023-03-26T04:07:45.495Z,32.80
2023-03-26T04:08:45.582Z,32.00
2023-03-26T04:09:45.441Z,33.90
2023-03-26T04:10:45.419Z,31.30
2023-03-26T04:11:45.387Z,33.70
2023-03-26T04:12:45.367Z,28.30
2023-03-26T04:13:45.458Z,29.80
2023-03-26T04:14:45.311Z,30.20
2023-03-26T04:15:45.299Z,39.90
2023-03-26T04:16:45.276Z,27.60
2023-03-26T04:17:45.297Z,25.00
2023-03-26T04:18:45.280Z,30.00
2023-03-26T04:19:45.188Z,31.40
2023-03-26T04:20:45.171Z,27.20
2023-03-26T04:21:45.135Z,33.00
2023-03-26T04:22:45.109Z,24.00
2023-03-26T04:23:45.133Z,30.50
2023-03-26T04:24:45.059Z,32.50
2023-03-26T04:25:45.033Z,31.40
2023-03-26T04:26:45.007Z,33.90
2023-03-26T04:27:44.984Z,24.40
2023-03-26T04:28:45.005Z,28.10
2023-03-26T04:29:44.929Z,32.00
2023-03-26T04:30:44.915Z,35.50
2023-03-26T04:31:44.947Z,35.00
2023-03-26T04:32:44.977Z,28.80
2023-03-26T04:33:44.875Z,29.90
2023-03-26T04:34:44.831Z,32.10
2023-03-26T04:35:44.854Z,31.70
2023-03-26T04:36:44.753Z,28.00
2023-03-26T04:37:44.747Z,36.00
2023-03-26T04:38:44.808Z,35.40
2023-03-26T04:39:44.675Z,29.60
2023-03-26T04:40:44.651Z,29.00
2023-03-26T04:41:44.622Z,35.80
2023-03-26T04:42:44.602Z,31.70
2023-03-26T04:43:44.568Z,23.50
2023-03-26T04:44:44.556Z,25.20
2023-03-26T04:45:44.517Z,26.30
2023-03-26T04:46:44.534Z,31.70
2023-03-26T04:47:44.502Z,25.70
2023-03-26T04:48:44.807Z,35.40
2023-03-26T04:49:44.414Z,33.70
2023-03-26T04:50:44.409Z,30.70
2023-03-26T04:51:44.366Z,32.90
2023-03-26T04:52:45.416Z,26.50
2023-03-26T04:53:44.362Z,29.50
2023-03-26T04:54:44.286Z,29.30
2023-03-26T04:55:44.274Z,29.70
2023-03-26T04:56:44.318Z,26.00
2023-03-26T04:57:44.224Z,33.20
2023-03-26T04:58:44.237Z,29.50
2023-03-26T04:59:44.159Z,36.00
2023-03-26T05:00:44.155Z,30.00
2023-03-26T05:01:44.118Z,33.80
2023-03-26T05:02:44.131Z,30.90
2023-03-26T05:03:44.105Z,31.90
2023-03-26T05:04:44.123Z,34.00
2023-03-26T05:05:44.001Z,28.30
2023-03-26T05:06:43.992Z,32.00
2023-03-26T05:07:43.949Z,26.30
2023-03-26T05:08:43.979Z,37.70
2023-03-26T05:09:43.900Z,33.20
2023-03-26T05:10:43.873Z,32.60
2023-03-26T05:11:43.848Z,32.90
2023-03-26T05:12:43.834Z,33.80
2023-03-26T05:13:43.850Z,39.30
2023-03-26T05:14:43.773Z,31.40
2023-03-26T05:15:43.746Z,37.30
2023-03-26T05:16:43.763Z,28.90
2023-03-26T05:17:43.710Z,34.20
2023-03-26T05:18:43.717Z,30.20
2023-03-26T05:19:43.642Z,32.90
2023-03-26T05:20:43.682Z,35.50
2023-03-26T05:21:43.599Z,27.40
2023-03-26T05:22:43.585Z,31.00
2023-03-26T05:23:43.599Z,32.40
2023-03-26T05:24:43.513Z,30.70
2023-03-26T05:25:43.512Z,34.80
2023-03-26T05:26:43.461Z,25.30
2023-03-26T05:27:43.439Z,33.00
2023-03-26T05:28:43.463Z,33.90
2023-03-26T05:29:43.408Z,37.00
2023-03-26T05:30:43.357Z,32.30
2023-03-26T05:31:43.332Z,30.20
2023-03-26T05:32:43.496Z,34.80
2023-03-26T05:33:43.420Z,32.60
2023-03-26T05:34:43.252Z,30.50
2023-03-26T05:35:43.260Z,28.40
2023-03-26T05:36:43.211Z,31.60
2023-03-26T05:37:43.178Z,31.40
2023-03-26T05:38:43.226Z,33.80
2023-03-26T05:39:43.135Z,30.60
2023-03-26T05:40:43.106Z,31.90
2023-03-26T05:41:43.083Z,34.30
2023-03-26T05:42:43.050Z,32.30
2023-03-26T05:43:43.077Z,33.10
2023-03-26T05:44:42.997Z,26.70
2023-03-26T05:45:43.031Z,27.40
2023-03-26T05:46:42.945Z,34.10
2023-03-26T05:47:42.951Z,23.80
2023-03-26T05:48:42.979Z,23.70
2023-03-26T05:49:42.879Z,33.80
2023-03-26T05:50:42.842Z,27.90
2023-03-26T05:51:42.822Z,36.00
2023-03-26T05:52:42.794Z,33.10
2023-03-26T05:53:42.825Z,27.30
2023-03-26T05:54:42.766Z,29.30
2023-03-26T05:55:42.735Z,32.70
2023-03-26T05:56:42.717Z,31.70
2023-03-26T05:57:42.785Z,30.90
2023-03-26T05:58:42.694Z,27.00
2023-03-26T05:59:42.613Z,32.50
2023-03-26T06:00:42.583Z,35.10
2023-03-26T06:01:42.561Z,36.40
2023-03-26T06:02:42.573Z,29.10
2023-03-26T06:03:42.650Z,26.50
2023-03-26T06:04:42.602Z,32.90
2023-03-26T06:05:42.462Z,30.40
2023-03-26T06:06:42.429Z,29.40
2023-03-26T06:07:42.420Z,32.70
2023-03-26T06:08:42.427Z,23.40
2023-03-26T06:09:42.359Z,30.00
2023-03-26T06:10:42.348Z,28.90
2023-03-26T06:11:42.308Z,30.40
2023-03-26T06:12:42.275Z,36.00
2023-03-26T06:13:42.301Z,30.10
2023-03-26T06:14:42.222Z,29.30
2023-03-26T06:15:42.232Z,37.50
2023-03-26T06:16:42.183Z,33.50
2023-03-26T06:17:42.201Z,38.00
2023-03-26T06:18:42.202Z,29.50
2023-03-26T06:19:42.127Z,27.80
2023-03-26T06:20:42.081Z,28.80
2023-03-26T06:21:42.047Z,35.80
2023-03-26T06:22:42.026Z,36.40
2023-03-26T06:23:42.042Z,27.50
2023-03-26T06:24:41.969Z,29.10
2023-03-26T06:25:41.947Z,29.50
2023-03-26T06:26:41.932Z,25.80
2023-03-26T06:27:41.898Z,30.50
2023-03-26T06:28:41.965Z,28.80
2023-03-26T06:29:41.845Z,31.90
2023-03-26T06:30:41.813Z,36.00
2023-03-26T06:31:41.864Z,29.60
2023-03-26T06:32:41.780Z,28.90
2023-03-26T06:33:41.845Z,28.40
2023-03-26T06:34:41.734Z,23.80
2023-03-26T06:35:41.709Z,32.00
2023-03-26T06:36:41.668Z,32.40
2023-03-26T06:37:41.633Z,27.80
2023-03-26T06:38:41.655Z,28.40
2023-03-26T06:39:41.592Z,25.30
2023-03-26T06:40:41.573Z,31.90
2023-03-26T06:41:41.533Z,31.90
2023-03-26T06:43:09.306Z,33.70
2023-03-26T06:43:41.534Z,34.70
2023-03-26T06:44:41.458Z,29.10
2023-03-26T06:45:41.442Z,26.00
2023-03-26T06:46:41.431Z,32.90
2023-03-26T06:47:41.431Z,29.90
2023-03-26T06:48:41.402Z,30.80
2023-03-26T06:49:42.688Z,24.30
2023-03-26T06:50:41.300Z,27.50
2023-03-26T06:51:41.276Z,30.10
2023-03-26T06:52:41.252Z,31.60
2023-03-26T06:53:41.288Z,25.70
2023-03-26T06:54:41.204Z,31.10
2023-03-26T06:55:41.238Z,31.80
2023-03-26T06:56:41.237Z,34.10
2023-03-26T06:57:41.132Z,28.90
2023-03-26T06:58:41.238Z,39.60
2023-03-26T06:59:41.080Z,34.60
2023-03-26T07:00:41.104Z,36.40
2023-03-26T07:01:41.020Z,32.70
2023-03-26T07:02:41.030Z,30.90
2023-03-26T07:03:41.072Z,29.10
2023-03-26T07:04:40.947Z,25.10
2023-03-26T07:05:40.934Z,27.70
2023-03-26T07:06:40.900Z,29.90
2023-03-26T07:07:46.715Z,23.70
2023-03-26T07:08:41.392Z,26.90
2023-03-26T07:09:40.818Z,27.70
2023-03-26T07:10:40.796Z,25.70
2023-03-26T07:11:40.766Z,30.80
2023-03-26T07:12:40.754Z,28.60
2023-03-26T07:13:40.722Z,29.40
2023-03-26T07:14:40.762Z,32.40
2023-03-26T07:15:40.665Z,30.10
2023-03-26T07:16:40.690Z,25.90
2023-03-26T07:17:40.664Z,29.70
2023-03-26T07:18:40.637Z,24.90
2023-03-26T07:19:40.564Z,26.50
2023-03-26T07:20:40.535Z,32.50
2023-03-26T07:21:40.511Z,23.70
2023-03-26T07:22:40.485Z,37.10
2023-03-26T07:23:40.513Z,39.20
2023-03-26T07:24:40.443Z,34.80
2023-03-26T07:25:40.412Z,31.90
2023-03-26T07:26:40.396Z,34.50
2023-03-26T07:27:40.399Z,38.80
2023-03-26T07:28:40.385Z,27.00
2023-03-26T07:29:40.391Z,34.80
2023-03-26T07:30:40.374Z,34.90
2023-03-26T07:31:40.336Z,32.20
2023-03-26T07:32:40.431Z,28.90
2023-03-26T07:33:40.384Z,34.50
2023-03-26T07:34:40.235Z,35.70
2023-03-26T07:35:40.251Z,32.10
2023-03-26T07:36:40.128Z,31.80
2023-03-26T07:37:40.182Z,31.60
2023-03-26T07:38:40.196Z,24.80
2023-03-26T07:39:40.101Z,30.90
2023-03-26T07:40:40.095Z,28.20
2023-03-26T07:41:40.007Z,25.10
2023-03-26T07:42:40.010Z,29.20
2023-03-26T07:43:40.007Z,27.30
2023-03-26T07:44:39.921Z,33.60
2023-03-26T07:45:39.928Z,33.30
2023-03-26T07:46:39.890Z,28.40
2023-03-26T07:47:39.857Z,24.20
2023-03-26T07:48:39.867Z,30.20
2023-03-26T07:49:39.790Z,28.10
2023-03-26T07:50:39.770Z,26.40
2023-03-26T07:51:39.778Z,28.70
2023-03-26T07:52:39.744Z,23.40
2023-03-26T07:53:39.754Z,29.20
2023-03-26T07:54:39.668Z,24.50
2023-03-26T07:55:39.651Z,30.40
2023-03-26T07:56:39.721Z,28.30
2023-03-26T07:57:39.652Z,24.90
2023-03-26T07:58:39.671Z,29.10
2023-03-26T07:59:39.575Z,26.40
2023-03-26T08:00:39.533Z,24.60
2023-03-26T08:01:39.485Z,32.90
2023-03-26T08:02:39.537Z,28.10
2023-03-26T08:03:39.577Z,26.10
2023-03-26T08:04:39.581Z,30.40
2023-03-26T08:05:39.425Z,28.10
2023-03-26T08:06:39.573Z,25.40
2023-03-26T08:07:39.369Z,34.30
2023-03-26T08:08:39.352Z,25.80
2023-03-26T08:09:39.286Z,30.90
2023-03-26T08:10:39.272Z,29.60
2023-03-26T08:11:39.241Z,30.30
2023-03-26T08:12:39.203Z,28.50
2023-03-26T08:13:39.245Z,27.80
2023-03-26T08:14:39.154Z,26.20
2023-03-26T08:15:39.166Z,29.90
2023-03-26T08:16:39.155Z,36.40
2023-03-26T08:17:39.099Z,30.50
2023-03-26T08:18:39.152Z,25.20
2023-03-26T08:19:39.023Z,31.80
2023-03-26T08:20:39.006Z,28.60
2023-03-26T08:21:38.981Z,26.60
2023-03-26T08:22:38.957Z,30.90
2023-03-26T08:23:50.784Z,30.90
2023-03-26T08:24:38.906Z,29.50
2023-03-26T08:25:38.931Z,29.30
2023-03-26T08:26:38.907Z,28.60
2023-03-26T08:27:38.823Z,28.60
2023-03-26T08:28:38.867Z,27.10
2023-03-26T08:29:38.776Z,26.80
2023-03-26T08:30:38.750Z,34.30
2023-03-26T08:31:38.794Z,26.10
2023-03-26T08:32:38.749Z,26.00
2023-03-26T08:33:38.936Z,26.10
2023-03-26T08:34:38.658Z,27.40
2023-03-26T08:35:38.645Z,32.10
2023-03-26T08:36:38.755Z,28.00
2023-03-26T08:37:38.572Z,31.10
2023-03-26T08:38:38.603Z,29.20
2023-03-26T08:39:38.530Z,27.10
2023-03-26T08:40:38.492Z,29.10
2023-03-26T08:41:38.466Z,29.00
2023-03-26T08:42:38.445Z,25.00
2023-03-26T08:43:38.422Z,27.90
2023-03-26T08:44:38.490Z,28.00
2023-03-26T08:45:38.368Z,32.30
2023-03-26T08:46:38.417Z,29.40
2023-03-26T08:47:38.345Z,24.20
2023-03-26T08:48:38.395Z,31.30
2023-03-26T08:49:38.275Z,25.00
2023-03-26T08:50:38.262Z,28.90
2023-03-26T08:51:38.301Z,27.40
2023-03-26T08:52:38.198Z,27.50
2023-03-26T08:53:38.170Z,28.20
2023-03-26T08:54:38.191Z,26.70
2023-03-26T08:55:38.135Z,29.00
2023-03-26T08:56:38.198Z,24.80
2023-03-26T08:57:38.072Z,26.70
2023-03-26T08:58:38.091Z,30.90
2023-03-26T08:59:38.076Z,28.60
2023-03-26T09:00:38.005Z,30.10
2023-03-26T09:01:38.099Z,25.80
2023-03-26T09:02:38.073Z,29.40
2023-03-26T09:03:37.972Z,27.40
2023-03-26T09:04:38.403Z,28.50
2023-03-26T09:05:37.870Z,28.70
2023-03-26T09:06:37.857Z,23.00
2023-03-26T09:07:37.821Z,27.30
2023-03-26T09:08:37.797Z,28.40
2023-03-26T09:09:37.888Z,26.90
2023-03-26T09:10:37.740Z,22.90
2023-03-26T09:11:37.718Z,28.40
2023-03-26T09:12:37.702Z,28.20
2023-03-26T09:13:37.674Z,25.60
2023-03-26T09:14:37.689Z,22.30
2023-03-26T09:15:37.630Z,34.00
2023-03-26T09:16:37.647Z,32.20
2023-03-26T09:17:37.601Z,29.10
2023-03-26T09:18:37.541Z,28.50
2023-03-26T09:19:37.566Z,23.00
2023-03-26T09:20:37.499Z,29.90
2023-03-26T09:21:37.465Z,35.10
2023-03-26T09:22:37.457Z,30.50
2023-03-26T09:23:37.414Z,26.70
2023-03-26T09:24:37.448Z,24.70
2023-03-26T09:25:37.372Z,28.50
2023-03-26T09:26:37.336Z,24.30
2023-03-26T09:27:37.316Z,29.40
2023-03-26T09:28:37.302Z,27.40
2023-03-26T09:29:37.330Z,31.50
2023-03-26T09:30:37.238Z,23.70
2023-03-26T09:31:37.258Z,22.20
2023-03-26T09:32:37.244Z,30.00
2023-03-26T09:33:37.172Z,27.40
2023-03-26T09:34:37.240Z,30.80
2023-03-26T09:35:37.143Z,26.60
2023-03-26T09:36:37.091Z,26.20
2023-03-26T09:37:57.586Z,30.00
2023-03-26T09:38:37.082Z,21.50
2023-03-26T09:39:37.016Z,29.60
2023-03-26T09:40:37.008Z,26.20
2023-03-26T09:41:36.965Z,31.70
2023-03-26T09:42:36.940Z,34.20
2023-03-26T09:43:36.913Z,34.80
2023-03-26T09:44:36.990Z,42.50
2023-03-26T09:45:36.875Z,42.90
2023-03-26T09:46:36.837Z,48.00
2023-03-26T09:47:36.845Z,34.40
2023-03-26T09:48:36.791Z,35.40
2023-03-26T09:49:37.018Z,27.60
2023-03-26T09:50:36.745Z,31.30
2023-03-26T09:51:36.725Z,28.20
2023-03-26T09:52:36.705Z,27.40
2023-03-26T09:53:37.227Z,28.80
2023-03-26T09:54:37.938Z,28.80
2023-03-26T09:55:36.609Z,31.20
2023-03-26T09:56:38.468Z,32.50
2023-03-26T09:57:36.622Z,28.70
2023-03-26T09:58:36.543Z,23.10
2023-03-26T09:59:36.602Z,29.90
2023-03-26T10:00:36.544Z,34.40
2023-03-26T10:01:36.508Z,25.20
2023-03-26T10:02:45.478Z,28.90
2023-03-26T10:03:36.404Z,33.20
2023-03-26T10:04:36.693Z,30.70
2023-03-26T10:05:36.422Z,31.20
2023-03-26T10:06:36.336Z,31.60
2023-03-26T10:07:36.305Z,30.00
2023-03-26T10:08:36.292Z,30.80
2023-03-26T10:09:36.315Z,31.20
2023-03-26T10:10:36.259Z,20.40
2023-03-26T10:11:36.211Z,31.10
2023-03-26T10:12:36.183Z,32.10
2023-03-26T10:13:36.155Z,29.40
2023-03-26T10:14:36.252Z,30.60
2023-03-26T10:15:36.103Z,22.20
2023-03-26T10:16:36.120Z,29.40
2023-03-26T10:17:36.115Z,25.70
2023-03-26T10:18:36.120Z,27.70
2023-03-26T10:19:36.053Z,31.60
2023-03-26T10:20:35.987Z,30.10
2023-03-26T10:21:35.950Z,26.60
2023-03-26T10:22:35.930Z,30.10
2023-03-26T10:23:35.900Z,32.30
2023-03-26T10:24:35.929Z,34.20
2023-03-26T10:25:35.876Z,28.10
2023-03-26T10:26:35.868Z,34.80
2023-03-26T10:27:35.797Z,34.50
2023-03-26T10:28:35.767Z,36.20
2023-03-26T10:29:35.880Z,30.80
2023-03-26T10:30:35.753Z,38.00
2023-03-26T10:31:35.702Z,35.60
2023-03-26T10:32:35.706Z,33.40
2023-03-26T10:33:35.642Z,38.20
2023-03-26T10:34:35.623Z,33.30
2023-03-26T10:35:35.656Z,34.90
2023-03-26T10:36:35.559Z,40.30
2023-03-26T10:37:35.532Z,33.80
2023-03-26T10:38:35.515Z,39.10
2023-03-26T10:39:37.874Z,33.80
2023-03-26T10:40:35.492Z,43.90
2023-03-26T10:41:35.596Z,35.70
2023-03-26T10:42:35.510Z,35.40
2023-03-26T10:43:35.596Z,38.20
2023-03-26T10:44:35.356Z,41.20
2023-03-26T10:45:35.380Z,40.00
2023-03-26T10:46:35.420Z,36.30
2023-03-26T10:47:35.422Z,42.50
2023-03-26T10:50:08.512Z,35.20
2023-03-26T10:51:07.859Z,37.50
2023-03-26T10:52:08.072Z,42.40
2023-03-26T10:53:07.819Z,38.00
2023-03-26T10:54:07.753Z,39.20
2023-03-26T10:55:07.724Z,43.10
2023-03-26T10:56:07.786Z,37.80
2023-03-26T10:57:07.768Z,37.90
2023-03-26T10:58:07.861Z,42.60
2023-03-26T10:59:07.625Z,44.60
2023-03-26T11:00:07.659Z,46.50
2023-03-26T11:01:07.584Z,48.10
2023-03-26T11:02:07.547Z,45.20
2023-03-26T11:03:07.544Z,36.90
2023-03-26T11:04:07.488Z,40.30
2023-03-26T11:05:07.515Z,42.30
2023-03-26T11:06:07.432Z,44.40
2023-03-26T11:07:07.425Z,39.20
2023-03-26T11:08:07.381Z,44.80
2023-03-26T11:09:07.366Z,42.20
2023-03-26T11:10:07.356Z,40.30
2023-03-26T11:11:07.303Z,42.00
2023-03-26T11:12:26.826Z,43.90
2023-03-26T11:13:07.254Z,43.20
2023-03-26T11:14:07.250Z,41.70
2023-03-26T11:15:07.204Z,43.30
2023-03-26T11:16:07.226Z,42.20
2023-03-26T11:17:07.149Z,39.10
2023-03-26T11:18:07.147Z,41.00
2023-03-26T11:19:07.101Z,49.60
2023-03-26T11:20:07.137Z,45.20
2023-03-26T11:21:18.682Z,48.20
2023-03-26T11:22:07.052Z,43.40
2023-03-26T11:23:07.005Z,38.90
2023-03-26T11:24:06.968Z,39.70
2023-03-26T11:25:06.941Z,40.90
2023-03-26T11:26:06.911Z,37.80
2023-03-26T11:27:15.017Z,36.40
2023-03-26T11:28:06.862Z,33.00
2023-03-26T11:29:31.481Z,41.50
2023-03-26T11:30:06.936Z,36.70
2023-03-26T11:31:06.792Z,35.00
2023-03-26T11:32:06.833Z,37.10
2023-03-26T11:33:06.765Z,35.10
2023-03-26T11:34:06.750Z,38.30
2023-03-26T11:35:06.675Z,33.60
2023-03-26T11:36:06.805Z,34.70
2023-03-26T11:37:06.620Z,32.00
2023-03-26T11:38:06.600Z,34.40
2023-03-26T11:39:06.571Z,39.30
2023-03-26T11:40:06.626Z,37.80
2023-03-26T11:41:06.578Z,39.70
2023-03-26T11:42:06.496Z,43.40
2023-03-26T11:43:06.465Z,35.10
2023-03-26T11:44:06.497Z,38.70
2023-03-26T11:45:06.410Z,37.20
2023-03-26T11:46:06.439Z,38.90
2023-03-26T11:47:06.387Z,41.00
2023-03-26T11:48:06.353Z,38.60
2023-03-26T11:49:06.358Z,38.60
2023-03-26T11:50:06.280Z,32.30
2023-03-26T11:51:06.248Z,36.20
2023-03-26T11:52:06.224Z,28.50
2023-03-26T11:53:06.219Z,31.60
2023-03-26T11:54:06.239Z,32.50
2023-03-26T11:55:06.167Z,33.50
2023-03-26T11:56:06.127Z,33.20
2023-03-26T11:57:07.228Z,26.90
2023-03-26T11:58:06.070Z,26.80
2023-03-26T11:59:06.161Z,34.70
2023-03-26T12:00:06.076Z,30.30
2023-03-26T12:01:05.981Z,31.60
2023-03-26T12:02:06.067Z,30.20
2023-03-26T12:03:05.991Z,31.40
2023-03-26T12:04:06.026Z,28.80
2023-03-26T12:05:05.878Z,34.30
2023-03-26T12:06:05.914Z,29.10
2023-03-26T12:07:05.873Z,25.80
2023-03-26T12:08:05.830Z,30.90
2023-03-26T12:09:05.854Z,30.40
2023-03-26T12:10:17.805Z,29.90
2023-03-26T12:11:16.246Z,30.30
2023-03-26T12:12:05.757Z,31.50
2023-03-26T12:13:05.684Z,27.30
2023-03-26T12:14:05.722Z,31.80
2023-03-26T12:15:05.639Z,37.00
2023-03-26T12:16:05.644Z,41.60
2023-03-26T12:17:05.591Z,31.40
2023-03-26T12:18:05.617Z,33.80
2023-03-26T12:19:05.606Z,29.20
2023-03-26T12:20:05.519Z,25.80
2023-03-26T12:21:11.765Z,27.40
2023-03-26T12:22:16.206Z,25.20
2023-03-26T12:23:05.396Z,25.70
2023-03-26T12:24:05.662Z,23.50
2023-03-26T12:25:05.364Z,28.40
2023-03-26T12:26:05.424Z,24.00
2023-03-26T12:27:05.318Z,21.00
2023-03-26T12:28:05.311Z,20.30
2023-03-26T12:29:05.281Z,22.60
2023-03-26T12:30:05.198Z,24.60
2023-03-26T12:31:05.221Z,20.80
2023-03-26T12:32:05.224Z,19.30
2023-03-26T12:33:05.350Z,21.50
2023-03-26T12:34:05.234Z,19.60
2023-03-26T12:35:05.075Z,19.40
2023-03-26T12:36:05.121Z,20.40
2023-03-26T12:37:05.070Z,19.60
2023-03-26T12:38:05.096Z,15.80
2023-03-26T12:39:42.806Z,15.30
2023-03-26T12:40:07.191Z,16.30
2023-03-26T12:41:04.938Z,15.30
2023-03-26T12:44:42.958Z,17.90
2023-03-26T12:44:51.503Z,19.60
2023-03-26T12:44:53.578Z,16.90
2023-03-26T12:45:04.814Z,16.00
2023-03-26T12:47:54.406Z,16.20
2023-03-26T12:47:57.602Z,14.60
2023-03-26T12:48:04.820Z,16.30
2023-03-26T12:49:04.979Z,15.10
2023-03-26T12:50:04.674Z,18.10
2023-03-26T12:51:04.635Z,16.30
2023-03-26T12:52:04.643Z,16.00
2023-03-26T12:53:04.600Z,16.10
2023-03-26T12:54:04.609Z,16.30